createdAt,value
2023-05-12T00:00:59.873Z,2.35
2023-05-12T00:03:26.709Z,2.20
2023-05-12T00:05:53.766Z,2.13
2023-05-12T00:08:20.410Z,2.28
2023-05-12T00:10:47.014Z,1.90
2023-05-12T00:13:13.625Z,2.58
2023-05-12T00:15:40.599Z,3.08
2023-05-12T00:18:07.218Z,2.80
2023-05-12T00:20:33.845Z,2.90
2023-05-12T00:23:00.471Z,2.60
2023-05-12T00:25:27.103Z,2.78
2023-05-12T00:27:53.742Z,2.95
2023-05-12T00:30:21.648Z,2.72
2023-05-12T00:32:49.122Z,2.88
2023-05-12T00:35:16.501Z,3.10
2023-05-12T00:37:43.166Z,3.67
2023-05-12T00:40:09.925Z,3.60
2023-05-12T00:42:36.624Z,3.97
2023-05-12T00:45:04.585Z,2.90
2023-05-12T00:47:31.243Z,3.20
2023-05-12T00:49:57.879Z,3.08
2023-05-12T00:52:24.536Z,3.28
2023-05-12T00:54:51.179Z,2.83
2023-05-12T00:57:17.828Z,2.80
2023-05-12T00:59:44.422Z,3.17
2023-05-12T01:02:11.146Z,3.25
2023-05-12T01:04:38.609Z,3.33
2023-05-12T01:07:09.837Z,3.20
2023-05-12T01:09:36.632Z,3.42
2023-05-12T01:12:03.402Z,3.40
2023-05-12T01:14:30.064Z,3.20
2023-05-12T01:16:59.252Z,2.97
2023-05-12T01:19:41.620Z,3.08
2023-05-12T01:22:09.127Z,3.40
2023-05-12T01:24:38.888Z,3.38
2023-05-12T01:27:05.617Z,3.22
2023-05-12T01:29:32.332Z,3.08
2023-05-12T01:31:58.935Z,3.40
2023-05-12T01:34:25.914Z,3.40
2023-05-12T01:36:52.597Z,3.47
2023-05-12T01:39:19.204Z,3.33
2023-05-12T01:41:45.848Z,3.22
2023-05-12T01:44:12.460Z,4.05
2023-05-12T01:46:39.066Z,3.40
2023-05-12T01:49:05.678Z,3.53
2023-05-12T01:51:32.283Z,3.80
2023-05-12T01:53:58.896Z,3.60
2023-05-12T01:56:26.483Z,3.58
2023-05-12T01:58:53.115Z,3.45
2023-05-12T02:01:19.765Z,3.67
2023-05-12T02:03:46.514Z,3.72
2023-05-12T02:06:13.333Z,3.67
2023-05-12T02:08:39.934Z,3.95
2023-05-12T02:11:09.683Z,4.47
2023-05-12T02:13:36.316Z,4.30
2023-05-12T02:16:02.989Z,4.80
2023-05-12T02:18:29.677Z,4.65
2023-05-12T02:20:56.303Z,4.70
2023-05-12T02:23:22.968Z,4.30
2023-05-12T02:25:49.598Z,4.97
2023-05-12T02:28:16.286Z,5.10
2023-05-12T02:30:48.530Z,4.85
2023-05-12T02:33:15.936Z,4.90
2023-05-12T02:35:43.068Z,4.65
2023-05-12T02:38:09.687Z,4.57
2023-05-12T02:40:36.316Z,4.93
2023-05-12T02:43:02.978Z,5.22
2023-05-12T02:45:29.620Z,4.15
2023-05-12T02:47:56.404Z,4.38
2023-05-12T02:50:23.180Z,4.93
2023-05-12T02:52:49.949Z,4.70
2023-05-12T02:55:16.687Z,4.38
2023-05-12T02:57:43.750Z,4.45
2023-05-12T03:00:10.823Z,4.55
2023-05-12T03:02:38.419Z,4.22
2023-05-12T03:05:05.607Z,4.53
2023-05-12T03:07:32.254Z,4.80
2023-05-12T03:09:58.952Z,4.45
2023-05-12T03:12:25.766Z,4.50
2023-05-12T03:14:52.385Z,4.78
2023-05-12T03:17:19.170Z,4.60
2023-05-12T03:19:45.865Z,5.28
2023-05-12T03:22:12.554Z,4.57
2023-05-12T03:24:39.165Z,4.80
2023-05-12T03:27:05.837Z,4.47
2023-05-12T03:29:32.443Z,4.35
2023-05-12T03:31:59.055Z,5.03
2023-05-12T03:34:25.664Z,5.30
2023-05-12T03:36:52.244Z,4.47
2023-05-12T03:39:18.862Z,4.95
2023-05-12T03:41:45.493Z,5.13
2023-05-12T03:44:12.288Z,4.40
2023-05-12T03:46:38.979Z,4.53
2023-05-12T03:49:05.680Z,5.00
2023-05-12T03:51:32.288Z,5.53
2023-05-12T03:53:59.063Z,4.72
2023-05-12T03:56:25.678Z,4.80
2023-05-12T03:58:52.345Z,4.70
2023-05-12T04:01:18.944Z,3.97
2023-05-12T04:03:46.181Z,4.20
2023-05-12T04:06:13.212Z,4.03
2023-05-12T04:08:42.018Z,4.13
2023-05-12T04:11:09.403Z,3.60
2023-05-12T04:13:36.050Z,4.03
2023-05-12T04:16:02.757Z,3.63
2023-05-12T04:18:29.424Z,4.30
2023-05-12T04:20:56.137Z,3.92
2023-05-12T04:23:22.897Z,3.60
2023-05-12T04:25:49.555Z,3.38
2023-05-12T04:28:16.199Z,3.97
2023-05-12T04:30:43.061Z,3.00
2023-05-12T04:33:10.011Z,3.75
2023-05-12T04:35:36.767Z,3.80
2023-05-12T04:38:03.525Z,3.67
2023-05-12T04:40:31.597Z,3.92
2023-05-12T04:43:00.080Z,3.92
2023-05-12T04:45:26.758Z,3.42
2023-05-12T04:47:53.435Z,3.08
2023-05-12T04:50:20.379Z,2.85
2023-05-12T04:52:46.988Z,3.13
2023-05-12T04:55:13.752Z,2.92
2023-05-12T04:57:41.382Z,3.08
2023-05-12T05:00:09.086Z,2.22
2023-05-12T05:02:36.046Z,2.22
2023-05-12T05:05:02.874Z,2.50
2023-05-12T05:07:29.497Z,2.17
2023-05-12T05:09:56.117Z,2.28
2023-05-12T05:12:22.742Z,2.25
2023-05-12T05:14:49.457Z,5.07
2023-05-12T05:17:16.215Z,3.80
2023-05-12T05:19:54.882Z,2.83
2023-05-12T05:22:24.780Z,2.72
2023-05-12T05:24:52.019Z,3.00
2023-05-12T05:27:18.926Z,3.10
2023-05-12T05:29:45.764Z,2.72
2023-05-12T05:32:12.447Z,3.00
2023-05-12T05:34:39.410Z,3.03
2023-05-12T05:37:06.132Z,2.63
2023-05-12T05:39:32.760Z,2.40
2023-05-12T05:41:59.376Z,3.13
2023-05-12T05:44:25.999Z,2.85
2023-05-12T05:46:52.668Z,3.03
2023-05-12T05:49:19.511Z,3.05
2023-05-12T05:51:46.127Z,2.40
2023-05-12T05:54:12.733Z,2.60
2023-05-12T05:56:39.498Z,2.85
2023-05-12T05:59:06.334Z,3.53
2023-05-12T06:01:33.142Z,2.83
2023-05-12T06:03:59.929Z,2.63
2023-05-12T06:06:26.660Z,2.90
2023-05-12T06:08:56.072Z,3.05
2023-05-12T06:11:22.849Z,2.53
2023-05-12T06:13:49.456Z,2.92
2023-05-12T06:16:16.086Z,2.88
2023-05-12T06:18:42.758Z,3.10
2023-05-12T06:21:09.598Z,3.10
2023-05-12T06:23:36.261Z,3.60
2023-05-12T06:26:03.318Z,3.03
2023-05-12T06:28:29.960Z,3.40
2023-05-12T06:30:56.566Z,2.80
2023-05-12T06:33:23.271Z,3.30
2023-05-12T06:35:49.878Z,3.40
2023-05-12T06:38:17.261Z,3.30
2023-05-12T06:40:44.188Z,3.15
2023-05-12T06:43:10.922Z,3.10
2023-05-12T06:45:37.544Z,2.78
2023-05-12T06:48:05.953Z,2.95
2023-05-12T06:50:33.740Z,2.97
2023-05-12T06:53:01.033Z,2.75
2023-05-12T06:55:28.109Z,3.10
2023-05-12T06:57:56.039Z,3.30
2023-05-12T07:00:23.845Z,3.28
2023-05-12T07:02:50.541Z,3.72
2023-05-12T07:05:18.683Z,3.20
2023-05-12T07:07:45.573Z,3.00
2023-05-12T07:10:12.249Z,4.30
2023-05-12T07:12:39.190Z,3.00
2023-05-12T07:15:06.590Z,2.50
2023-05-12T07:17:33.265Z,3.05
2023-05-12T07:19:59.942Z,3.08
2023-05-12T07:22:26.715Z,3.15
2023-05-12T07:24:53.858Z,2.58
2023-05-12T07:27:20.478Z,2.80
2023-05-12T07:29:47.081Z,2.60
2023-05-12T07:32:13.831Z,2.42
2023-05-12T07:34:40.434Z,2.90
2023-05-12T07:37:07.078Z,2.53
2023-05-12T07:39:33.863Z,2.75
2023-05-12T07:42:00.526Z,2.17
2023-05-12T07:44:27.960Z,2.65
2023-05-12T07:46:54.630Z,2.30
2023-05-12T07:49:23.194Z,2.40
2023-05-12T07:51:49.810Z,1.90
2023-05-12T07:54:16.435Z,1.95
2023-05-12T07:56:43.051Z,1.70
2023-05-12T07:59:10.759Z,1.92
2023-05-12T08:01:37.431Z,2.00
2023-05-12T08:04:04.234Z,1.77
2023-05-12T08:06:31.128Z,1.50
2023-05-12T08:08:58.358Z,1.80
2023-05-12T08:11:26.449Z,1.75
2023-05-12T08:13:53.265Z,1.80
2023-05-12T08:16:19.974Z,1.73
2023-05-12T08:18:46.604Z,1.50
2023-05-12T08:21:13.233Z,1.80
2023-05-12T08:23:39.843Z,2.00
2023-05-12T08:26:06.466Z,2.00
2023-05-12T08:28:33.113Z,1.80
2023-05-12T08:31:01.479Z,2.20
2023-05-12T08:33:29.357Z,2.47
2023-05-12T08:35:56.001Z,2.67
2023-05-12T08:38:22.629Z,2.28
2023-05-12T08:41:11.779Z,2.30
2023-05-12T08:43:43.979Z,2.20
2023-05-12T08:46:11.306Z,2.30
2023-05-12T08:48:39.121Z,2.42
2023-05-12T08:51:11.701Z,2.70
2023-05-12T08:53:38.856Z,2.58
2023-05-12T08:58:41.504Z,2.67
2023-05-12T09:01:08.654Z,2.75
2023-05-12T09:03:35.491Z,2.67
2023-05-12T09:06:02.502Z,2.33
2023-05-12T09:08:31.067Z,2.75
2023-05-12T09:10:58.098Z,2.70
2023-05-12T09:13:29.874Z,3.30
2023-05-12T09:15:56.763Z,2.90
2023-05-12T09:18:23.489Z,2.78
2023-05-12T09:20:50.208Z,2.67
2023-05-12T09:23:18.609Z,2.42
2023-05-12T09:25:46.823Z,2.70
2023-05-12T09:28:13.509Z,3.05
2023-05-12T09:30:42.270Z,2.92
2023-05-12T09:33:12.572Z,2.63
2023-05-12T09:35:43.066Z,3.92
2023-05-12T09:38:10.825Z,2.50
2023-05-12T09:40:37.495Z,3.15
2023-05-12T09:43:05.877Z,3.63
2023-05-12T09:45:36.666Z,3.00
2023-05-12T09:48:11.102Z,3.13
2023-05-12T09:50:47.805Z,2.95
2023-05-12T09:53:15.661Z,3.72
2023-05-12T09:55:45.950Z,3.78
2023-05-12T09:58:12.619Z,3.03
2023-05-12T10:00:52.461Z,3.55
2023-05-12T10:03:26.429Z,2.80
2023-05-12T10:06:01.583Z,3.65
2023-05-12T10:08:32.208Z,2.97
2023-05-12T10:10:59.261Z,3.47
2023-05-12T10:13:26.416Z,3.45
2023-05-12T10:15:55.806Z,3.28
2023-05-12T10:18:22.535Z,3.63
2023-05-12T10:20:49.245Z,3.65
2023-05-12T10:23:16.287Z,3.58
2023-05-12T10:25:46.140Z,4.10
2023-05-12T10:28:12.859Z,4.28
2023-05-12T10:30:39.908Z,4.50
2023-05-12T10:33:08.671Z,4.32
2023-05-12T10:35:36.431Z,3.85
2023-05-12T10:38:13.081Z,4.30
2023-05-12T10:41:01.267Z,4.13
2023-05-12T10:43:29.380Z,4.40
2023-05-12T10:46:14.772Z,4.50
2023-05-12T10:49:04.074Z,4.15
2023-05-12T10:51:32.964Z,4.45
2023-05-12T10:54:07.206Z,4.35
2023-05-12T10:59:11.905Z,4.72
2023-05-12T11:01:43.011Z,5.07
2023-05-12T11:04:11.583Z,4.35
2023-05-12T11:06:39.390Z,4.15
2023-05-12T11:09:08.876Z,4.20
2023-05-12T11:11:36.294Z,4.22
2023-05-12T11:14:03.161Z,4.35
2023-05-12T11:16:29.877Z,4.43
2023-05-12T11:19:08.690Z,4.85
2023-05-12T11:21:35.695Z,4.38
2023-05-12T11:24:02.772Z,4.57
2023-05-12T11:26:29.802Z,4.20
2023-05-12T11:28:59.545Z,4.00
2023-05-12T11:31:26.271Z,3.95
2023-05-12T11:34:12.132Z,3.78
2023-05-12T11:36:43.230Z,4.25
2023-05-12T11:39:36.421Z,3.83
2023-05-12T11:42:12.014Z,4.30
2023-05-12T11:44:46.701Z,4.97
2023-05-12T11:47:13.888Z,3.95
2023-05-12T11:49:51.180Z,4.28
2023-05-12T11:52:19.554Z,3.70
2023-05-12T11:55:05.976Z,3.72
2023-05-12T11:57:34.181Z,3.72
2023-05-12T12:00:01.742Z,4.18
2023-05-12T12:02:28.622Z,3.30
2023-05-12T12:04:55.351Z,3.83
2023-05-12T12:07:31.959Z,3.75
2023-05-12T12:09:58.934Z,3.13
2023-05-12T12:12:25.621Z,3.08
2023-05-12T12:14:52.258Z,3.20
2023-05-12T12:17:18.873Z,3.65
2023-05-12T12:19:47.661Z,3.53
2023-05-12T12:22:14.385Z,3.30
2023-05-12T12:24:42.248Z,3.60
2023-05-12T12:27:08.889Z,3.50
2023-05-12T12:29:35.497Z,4.00
2023-05-12T12:32:02.164Z,3.20
2023-05-12T12:34:28.817Z,3.10
2023-05-12T12:36:56.417Z,2.92
2023-05-12T12:39:23.274Z,3.50
2023-05-12T12:41:50.269Z,3.33
2023-05-12T12:44:17.689Z,3.50
2023-05-12T12:46:44.364Z,3.30
2023-05-12T12:49:11.296Z,3.72
2023-05-12T12:51:45.572Z,3.55
2023-05-12T12:54:14.625Z,3.28
2023-05-12T12:56:41.739Z,3.40
2023-05-12T12:59:09.745Z,3.15
2023-05-12T13:01:36.546Z,3.30
2023-05-12T13:04:04.592Z,3.17
2023-05-12T13:06:33.828Z,3.22
2023-05-12T13:09:01.200Z,3.30
2023-05-12T13:11:28.148Z,3.30
2023-05-12T13:13:54.763Z,3.72
2023-05-12T13:16:22.105Z,3.63
2023-05-12T13:18:48.813Z,3.40
2023-05-12T13:21:15.463Z,3.53
2023-05-12T13:23:42.186Z,3.70
2023-05-12T13:26:09.053Z,3.78
2023-05-12T13:28:35.802Z,3.65
2023-05-12T13:31:02.523Z,3.35
2023-05-12T13:33:29.164Z,3.22
2023-05-12T13:35:55.772Z,3.83
2023-05-12T13:38:22.440Z,3.35
2023-05-12T13:40:49.080Z,3.40
2023-05-12T13:43:15.737Z,3.92
2023-05-12T13:45:42.997Z,3.28
2023-05-12T13:48:09.691Z,2.97
2023-05-12T13:50:36.316Z,3.10
2023-05-12T13:53:02.993Z,3.30
2023-05-12T13:55:29.860Z,3.10
2023-05-12T13:57:56.617Z,2.80
2023-05-12T14:00:24.840Z,3.25
2023-05-12T14:02:52.328Z,2.88
2023-05-12T14:05:20.141Z,2.90
2023-05-12T14:07:47.152Z,3.08
2023-05-12T14:10:13.947Z,2.90
2023-05-12T14:12:42.742Z,3.20
2023-05-12T14:15:23.979Z,3.30
2023-05-12T14:17:56.035Z,3.17
2023-05-12T14:20:22.691Z,3.00
2023-05-12T14:22:49.337Z,3.47
2023-05-12T14:25:16.323Z,3.00
2023-05-12T14:27:43.094Z,3.00
2023-05-12T14:30:11.088Z,2.67
2023-05-12T14:32:37.925Z,3.30
2023-05-12T14:35:06.081Z,2.95
2023-05-12T14:37:34.700Z,2.80
2023-05-12T14:40:01.378Z,2.92
2023-05-12T14:42:29.405Z,2.88
2023-05-12T14:44:56.459Z,3.05
2023-05-12T14:47:23.365Z,2.97
2023-05-12T14:49:50.174Z,2.75
2023-05-12T14:52:16.879Z,2.90
2023-05-12T14:54:44.249Z,2.70
2023-05-12T14:57:10.911Z,3.95
2023-05-12T14:59:38.616Z,3.08
2023-05-12T15:02:05.577Z,2.90
2023-05-12T15:04:32.283Z,3.30
2023-05-12T15:06:59.005Z,2.80
2023-05-12T15:09:25.767Z,2.80
2023-05-12T15:11:52.721Z,3.17
2023-05-12T15:14:19.445Z,3.17
2023-05-12T15:16:46.226Z,3.13
2023-05-12T15:19:14.272Z,2.97
2023-05-12T15:21:41.047Z,2.92
2023-05-12T15:24:08.222Z,3.13
2023-05-12T15:26:40.070Z,2.83
2023-05-12T15:29:07.360Z,3.00
2023-05-12T15:31:34.355Z,3.00
2023-05-12T15:34:01.022Z,3.22
2023-05-12T15:36:27.649Z,3.42
2023-05-12T15:38:54.310Z,2.92
2023-05-12T15:41:21.508Z,3.35
2023-05-12T15:43:48.143Z,3.00
2023-05-12T15:46:14.887Z,3.10
2023-05-12T15:48:41.636Z,3.33
2023-05-12T15:51:08.252Z,2.67
2023-05-12T15:53:34.888Z,3.00
2023-05-12T15:56:02.099Z,3.13
2023-05-12T15:58:29.223Z,3.10
2023-05-12T16:00:55.931Z,2.92
2023-05-12T16:03:23.617Z,2.90
2023-05-12T16:05:50.419Z,2.65
2023-05-12T16:08:17.054Z,2.83
2023-05-12T16:10:43.652Z,2.63
2023-05-12T16:13:10.284Z,3.10
2023-05-12T16:15:37.037Z,3.03
2023-05-12T16:18:03.914Z,2.92
2023-05-12T16:20:30.809Z,3.22
2023-05-12T16:22:57.427Z,3.10
2023-05-12T16:25:24.369Z,2.97
2023-05-12T16:27:51.093Z,3.10
2023-05-12T16:30:19.927Z,2.97
2023-05-12T16:32:47.423Z,2.72
2023-05-12T16:35:14.220Z,2.80
2023-05-12T16:37:41.193Z,2.80
2023-05-12T16:40:09.430Z,2.90
2023-05-12T16:42:36.494Z,3.50
2023-05-12T16:45:03.400Z,2.90
2023-05-12T16:47:30.161Z,3.00
2023-05-12T16:49:58.213Z,3.92
2023-05-12T16:52:25.535Z,2.80
2023-05-12T16:54:53.108Z,3.15
2023-05-12T16:57:20.186Z,3.25
2023-05-12T16:59:48.424Z,3.13
2023-05-12T17:02:15.361Z,2.90
2023-05-12T17:04:42.125Z,2.90
2023-05-12T17:07:09.509Z,3.20
2023-05-12T17:09:36.214Z,3.03
2023-05-12T17:12:04.790Z,3.25
2023-05-12T17:14:31.483Z,3.13
2023-05-12T17:16:58.207Z,2.50
2023-05-12T17:19:24.904Z,2.83
2023-05-12T17:21:51.995Z,2.92
2023-05-12T17:24:18.696Z,3.03
2023-05-12T17:26:45.514Z,3.78
2023-05-12T17:29:12.176Z,3.72
2023-05-12T17:31:38.944Z,4.72
2023-05-12T17:34:05.647Z,11.65
2023-05-12T17:36:33.512Z,6.60
2023-05-12T17:39:00.170Z,11.80
2023-05-12T17:41:28.910Z,10.25
2023-05-12T17:43:55.756Z,17.92
2023-05-12T17:46:22.990Z,6.72
2023-05-12T17:48:49.781Z,5.30
2023-05-12T17:51:16.866Z,4.25
2023-05-12T17:53:43.552Z,3.63
2023-05-12T17:56:10.321Z,4.30
2023-05-12T17:58:36.965Z,4.47
2023-05-12T18:01:03.749Z,2.85
2023-05-12T18:03:30.476Z,3.08
2023-05-12T18:05:57.295Z,2.97
2023-05-12T18:08:23.974Z,3.05
2023-05-12T18:10:51.138Z,2.95
2023-05-12T18:13:17.892Z,3.03
2023-05-12T18:15:44.529Z,2.90
2023-05-12T18:18:11.314Z,2.85
2023-05-12T18:20:38.419Z,3.65
2023-05-12T18:23:05.271Z,4.13
2023-05-12T18:25:32.034Z,3.35
2023-05-12T18:27:58.678Z,5.65
2023-05-12T18:30:25.279Z,3.53
2023-05-12T18:32:52.309Z,3.25
2023-05-12T18:35:19.708Z,3.47
2023-05-12T18:37:46.552Z,3.30
2023-05-12T18:40:13.182Z,3.90
2023-05-12T18:42:39.810Z,2.95
2023-05-12T18:45:07.022Z,3.70
2023-05-12T18:47:34.335Z,6.43
2023-05-12T18:50:01.444Z,20.23
2023-05-12T18:52:28.059Z,18.92
2023-05-12T18:54:54.951Z,12.20
2023-05-12T18:57:21.660Z,10.40
2023-05-12T18:59:48.274Z,8.65
2023-05-12T19:02:14.916Z,11.20
2023-05-12T19:04:41.554Z,13.63
2023-05-12T19:07:09.816Z,13.85
2023-05-12T19:09:36.942Z,10.70
2023-05-12T19:12:05.839Z,8.90
2023-05-12T19:14:32.637Z,8.48
2023-05-12T19:16:59.236Z,6.28
2023-05-12T19:19:25.857Z,6.93
2023-05-12T19:21:52.514Z,6.50
2023-05-12T19:24:19.362Z,5.28
2023-05-12T19:26:45.981Z,5.47
2023-05-12T19:29:12.597Z,31.20
2023-05-12T19:31:39.244Z,10.80
2023-05-12T19:34:06.177Z,5.05
2023-05-12T19:36:32.793Z,4.10
2023-05-12T19:39:00.392Z,4.50
2023-05-12T19:41:27.944Z,5.10
2023-05-12T19:43:55.092Z,4.63
2023-05-12T19:46:21.938Z,4.95
2023-05-12T19:48:48.679Z,5.20
2023-05-12T19:51:15.305Z,5.40
2023-05-12T19:53:43.585Z,5.30
2023-05-12T19:56:10.229Z,6.05
2023-05-12T19:58:36.862Z,6.32
2023-05-12T20:01:03.577Z,5.45
2023-05-12T20:03:30.929Z,5.80
2023-05-12T20:05:58.562Z,6.50
2023-05-12T20:08:25.277Z,5.47
2023-05-12T20:10:52.056Z,5.95
2023-05-12T20:13:18.689Z,5.32
2023-05-12T20:15:45.359Z,7.55
2023-05-12T20:18:14.027Z,6.07
2023-05-12T20:20:42.150Z,8.48
2023-05-12T20:23:08.909Z,7.97
2023-05-12T20:25:36.140Z,7.53
2023-05-12T20:28:02.982Z,7.85
2023-05-12T20:30:29.629Z,6.57
2023-05-12T20:32:56.406Z,7.38
2023-05-12T20:35:23.435Z,6.47
2023-05-12T20:37:50.564Z,6.47
2023-05-12T20:40:17.234Z,6.72
2023-05-12T20:42:45.753Z,6.65
2023-05-12T20:45:12.827Z,5.78
2023-05-12T20:47:39.513Z,5.50
2023-05-12T20:50:09.460Z,5.78
2023-05-12T20:52:40.193Z,5.50
2023-05-12T20:55:07.454Z,5.65
2023-05-12T20:57:34.194Z,6.50
2023-05-12T21:00:00.809Z,5.78
2023-05-12T21:02:27.968Z,6.38
2023-05-12T21:04:55.080Z,7.57
2023-05-12T21:07:21.830Z,6.55
2023-05-12T21:09:48.433Z,6.90
2023-05-12T21:12:15.046Z,7.47
2023-05-12T21:14:42.552Z,6.55
2023-05-12T21:17:09.750Z,6.25
2023-05-12T21:19:36.746Z,7.78
2023-05-12T21:22:04.250Z,7.30
2023-05-12T21:24:30.843Z,5.85
2023-05-12T21:26:57.539Z,6.25
2023-05-12T21:29:24.127Z,5.53
2023-05-12T21:31:50.813Z,5.80
2023-05-12T21:34:17.407Z,6.15
2023-05-12T21:36:44.248Z,5.97
2023-05-12T21:39:10.867Z,6.80
2023-05-12T21:41:38.464Z,6.35
2023-05-12T21:44:06.167Z,6.75
2023-05-12T21:46:33.367Z,6.68
2023-05-12T21:49:00.149Z,7.53
2023-05-12T21:51:26.840Z,7.25
2023-05-12T21:53:56.588Z,7.88
2023-05-12T21:56:23.651Z,7.28
2023-05-12T21:58:50.588Z,7.45
2023-05-12T22:01:17.985Z,7.22
2023-05-12T22:03:45.104Z,7.53
2023-05-12T22:06:12.016Z,6.78
2023-05-12T22:08:38.674Z,6.63
2023-05-12T22:11:05.266Z,6.25
2023-05-12T22:13:31.871Z,5.25
2023-05-12T22:15:59.079Z,5.22
2023-05-12T22:18:25.745Z,4.50
2023-05-12T22:20:52.470Z,4.93
2023-05-12T22:23:19.336Z,5.20
2023-05-12T22:25:45.957Z,5.28
2023-05-12T22:28:12.588Z,5.25
2023-05-12T22:30:39.192Z,5.80
2023-05-12T22:33:05.913Z,6.15
2023-05-12T22:35:32.709Z,6.47
2023-05-12T22:37:59.321Z,6.53
2023-05-12T22:40:27.076Z,7.10
2023-05-12T22:42:53.886Z,6.85
2023-05-12T22:45:20.634Z,5.75
2023-05-12T22:47:47.271Z,6.95
2023-05-12T22:50:13.938Z,6.90
2023-05-12T22:52:40.547Z,7.88
2023-05-12T22:55:07.369Z,7.88
2023-05-12T22:57:33.985Z,6.72
2023-05-12T23:00:00.703Z,7.20
2023-05-12T23:02:27.373Z,7.20
2023-05-12T23:04:54.033Z,8.27
2023-05-12T23:07:20.734Z,7.45
2023-05-12T23:09:47.346Z,8.07
2023-05-12T23:12:13.952Z,8.10
2023-05-12T23:14:40.692Z,8.25
2023-05-12T23:17:07.365Z,8.82
2023-05-12T23:19:34.033Z,8.50
2023-05-12T23:22:00.629Z,8.00
2023-05-12T23:24:27.250Z,7.13
2023-05-12T23:26:53.894Z,7.30
2023-05-12T23:29:20.516Z,7.45
2023-05-12T23:31:47.164Z,7.82
2023-05-12T23:34:13.802Z,7.78
2023-05-12T23:36:40.414Z,5.88
2023-05-12T23:39:07.102Z,6.10
2023-05-12T23:41:36.190Z,5.47
2023-05-12T23:44:03.209Z,5.78
2023-05-12T23:46:29.854Z,5.20
2023-05-12T23:48:56.572Z,5.20
2023-05-12T23:51:23.749Z,5.13
2023-05-12T23:53:50.525Z,5.35
2023-05-12T23:56:17.136Z,5.05
2023-05-12T23:58:43.882Z,5.20
